Time;durP1;ratioP1;P1;durP2;ratioP2;P2;SDS_P1;SDS_P2;PMS_P1;PMS_P2;Temp;Humidity;BMP_temperature;BMP_pressure;BME280_temperature;BME280_humidity;BME280_pressure;Samples;Min_cycle;Max_cycle;Signal;HPM_P1;HPM_P2
2023/02/04 00:00:33;;;;;;;0.00;0.00;;;;;;;-145.06;100.00;53868.09;10397303;28;20264;-80
2023/02/04 00:05:33;;;;;;;0.00;0.00;;;;;;;-145.06;100.00;53853.91;10377980;28;20037;-80
2023/02/04 00:10:35;;;;;;;0.00;0.00;;;;;;;-145.06;100.00;53835.69;10360818;28;20516;-80
2023/02/04 00:15:35;;;;;;;0.00;0.00;;;;;;;-145.06;100.00;53829.59;10361215;28;20326;-80
2023/02/04 00:20:36;;;;;;;0.00;0.00;;;;;;;-145.06;100.00;53821.50;10384584;28;20089;-80
2023/02/04 00:25:36;;;;;;;0.00;0.00;;;;;;;-145.06;100.00;53892.38;10401026;28;20037;-79
2023/02/04 00:30:36;;;;;;;0.00;0.00;;;;;;;-145.06;100.00;53914.66;10392354;28;20283;-80
2023/02/04 00:35:37;;;;;;;0.00;0.00;;;;;;;-145.06;100.00;53851.88;10387543;28;20022;-80
2023/02/04 00:40:37;;;;;;;0.03;0.03;;;;;;;-145.06;100.00;53847.84;10374430;28;20036;-80
2023/02/04 00:45:37;;;;;;;0.00;0.00;;;;;;;-145.06;100.00;53880.22;10360488;28;20838;-80
2023/02/04 00:50:38;;;;;;;0.00;0.00;;;;;;;-145.06;100.00;53884.28;10352278;28;20099;-80
2023/02/04 00:55:39;;;;;;;0.00;0.00;;;;;;;-145.06;100.00;53868.09;10351166;28;20249;-80
2023/02/04 01:00:39;;;;;;;0.00;0.00;;;;;;;-145.06;100.00;53878.22;10364641;28;20030;-80
2023/02/04 01:05:39;;;;;;;0.00;0.00;;;;;;;-145.06;100.00;53868.09;10361333;28;20058;-79
2023/02/04 01:10:39;;;;;;;0.00;0.00;;;;;;;-145.06;100.00;53827.59;10366881;28;20025;-80
2023/02/04 01:15:40;;;;;;;0.00;0.00;;;;;;;-145.06;100.00;53888.34;10361222;28;20018;-79
2023/02/04 01:20:40;;;;;;;0.00;0.00;;;;;;;-145.06;100.00;53904.53;10350141;28;20901;-79
2023/02/04 01:25:40;;;;;;;0.00;0.00;;;;;;;-145.06;100.00;53849.84;10359186;28;20097;-80
2023/02/04 01:30:41;;;;;;;0.10;0.10;;;;;;;-145.06;100.00;53884.28;10377624;28;20265;-80
2023/02/04 01:35:41;;;;;;;0.00;0.00;;;;;;;-145.06;100.00;53866.06;10378849;28;20268;-80
2023/02/04 01:40:42;;;;;;;0.00;0.00;;;;;;;-145.06;100.00;53908.59;10384537;28;20117;-80
2023/02/04 01:45:43;;;;;;;0.00;0.00;;;;;;;-145.06;100.00;53843.78;10386151;28;20640;-80
2023/02/04 01:50:43;;;;;;;0.00;0.00;;;;;;;-145.06;100.00;53882.25;10383779;28;20396;-79
2023/02/04 01:55:43;;;;;;;0.10;0.10;;;;;;;-145.06;100.00;53872.13;10384232;28;20165;-80
2023/02/04 02:00:44;;;;;;;0.10;0.10;;;;;;;-145.06;100.00;53841.75;10387306;28;20137;-79
2023/02/04 02:05:51;;;;;;;0.00;0.00;;;;;;;-145.06;100.00;53843.78;10357885;28;20277;-80
2023/02/04 02:10:52;;;;;;;0.20;0.20;;;;;;;-145.06;100.00;53868.09;10364719;28;20030;-79
2023/02/04 02:15:52;;;;;;;0.00;0.00;;;;;;;-145.06;100.00;53847.84;10388104;28;20547;-79
2023/02/04 02:20:53;;;;;;;0.00;0.00;;;;;;;-145.06;100.00;53870.09;10387177;28;20117;-79
2023/02/04 02:25:54;;;;;;;0.00;0.00;;;;;;;-145.06;100.00;53870.09;10361274;28;20036;-80
2023/02/04 02:30:54;;;;;;;0.10;0.10;;;;;;;-145.06;100.00;53862.00;10371623;28;20041;-79
2023/02/04 02:35:55;;;;;;;0.00;0.00;;;;;;;-145.06;100.00;53851.88;10381774;28;20030;-81
2023/02/04 02:40:56;;;;;;;0.10;0.10;;;;;;;-145.06;100.00;53862.00;10381892;28;20034;-81
2023/02/04 02:45:59;;;;;;;0.00;0.00;;;;;;;-145.06;100.00;53853.91;10358124;28;20034;-80
2023/02/04 02:51:00;;;;;;;0.00;0.00;;;;;;;-145.06;100.00;53853.91;10364213;28;20478;-81
2023/02/04 02:56:03;;;;;;;0.10;0.10;;;;;;;-145.06;100.00;53908.59;10351738;28;20061;-81
2023/02/04 03:01:06;;;;;;;0.00;0.00;;;;;;;-145.06;100.00;53880.22;10367029;28;20026;-80
2023/02/04 03:06:14;;;;;;;0.17;0.17;;;;;;;-145.06;100.00;53851.88;10380158;28;20560;-80
2023/02/04 03:11:14;;;;;;;0.00;0.00;;;;;;;-145.06;100.00;53886.31;10347087;28;20030;-80
2023/02/04 03:16:15;;;;;;;0.00;0.00;;;;;;;-145.06;100.00;53876.19;10361207;28;20034;-80
2023/02/04 03:21:15;;;;;;;0.10;0.10;;;;;;;-145.06;100.00;53853.91;10347317;28;20298;-80
2023/02/04 03:26:16;;;;;;;0.00;0.00;;;;;;;-145.06;100.00;53843.78;10354305;28;20048;-80
2023/02/04 03:31:16;;;;;;;0.10;0.10;;;;;;;-145.06;100.00;53880.22;10379338;28;20276;-80
2023/02/04 03:36:17;;;;;;;0.10;0.10;;;;;;;-145.06;100.00;53872.13;10377890;28;20034;-81
2023/02/04 03:41:17;;;;;;;0.10;0.10;;;;;;;-145.06;100.00;53886.31;10383324;28;20173;-80
2023/02/04 03:46:18;;;;;;;0.00;0.00;;;;;;;-145.06;100.00;53872.13;10386661;28;20322;-81
2023/02/04 03:51:18;;;;;;;0.00;0.00;;;;;;;-145.06;100.00;53849.84;10378714;28;20033;-80
2023/02/04 03:56:19;;;;;;;0.10;0.10;;;;;;;-145.06;100.00;53876.19;10370376;28;20313;-80
2023/02/04 04:01:19;;;;;;;0.00;0.00;;;;;;;-145.06;100.00;53886.31;10367778;28;20092;-79
2023/02/04 04:06:19;;;;;;;0.00;0.00;;;;;;;-145.06;100.00;53876.19;10381835;28;20332;-82
2023/02/04 04:11:20;;;;;;;0.10;0.10;;;;;;;-145.06;100.00;53866.06;10386046;28;20025;-82
2023/02/04 04:16:21;;;;;;;0.03;0.03;;;;;;;-145.06;100.00;53876.19;10363069;28;20278;-82
2023/02/04 04:21:21;;;;;;;0.00;0.00;;;;;;;-145.06;100.00;53872.13;10350757;28;20153;-81
2023/02/04 04:26:22;;;;;;;0.00;0.00;;;;;;;-145.06;100.00;53839.72;10370131;28;20037;-81
2023/02/04 04:31:22;;;;;;;0.10;0.10;;;;;;;-145.06;100.00;53864.03;10381064;28;20064;-79
2023/02/04 04:36:22;;;;;;;0.00;0.00;;;;;;;-145.06;100.00;53876.19;10369996;28;20397;-82
2023/02/04 04:41:23;;;;;;;0.00;0.00;;;;;;;-145.06;100.00;53866.06;10364479;28;20041;-81
2023/02/04 04:46:23;;;;;;;0.00;0.00;;;;;;;-145.06;100.00;53884.28;10344167;28;20034;-81
2023/02/04 04:51:23;;;;;;;0.10;0.10;;;;;;;-145.06;100.00;53845.81;10368143;28;20038;-80
2023/02/04 04:56:23;;;;;;;0.10;0.10;;;;;;;-145.06;100.00;53849.84;10345047;28;20041;-80
2023/02/04 05:01:24;;;;;;;0.10;0.10;;;;;;;-145.06;100.00;53870.09;10356810;28;20033;-81
2023/02/04 05:06:24;;;;;;;0.10;0.10;;;;;;;-145.06;100.00;53884.28;10374732;28;20077;-80
2023/02/04 05:11:25;;;;;;;0.05;0.05;;;;;;;-145.06;100.00;53904.53;10357226;28;20054;-80
2023/02/04 05:16:25;;;;;;;0.10;0.10;;;;;;;-145.06;100.00;53904.53;10385740;28;20124;-80
2023/02/04 05:21:25;;;;;;;0.10;0.10;;;;;;;-145.06;100.00;53888.34;10361831;28;20030;-81
2023/02/04 05:26:26;;;;;;;0.00;0.00;;;;;;;-145.06;100.00;53864.03;10356272;28;20301;-79
2023/02/04 05:31:26;;;;;;;0.20;0.20;;;;;;;-145.06;100.00;53851.88;10370105;28;20026;-81
2023/02/04 05:36:27;;;;;;;0.10;0.10;;;;;;;-145.06;100.00;53882.25;10353062;28;20038;-80
2023/02/04 05:41:27;;;;;;;0.05;0.05;;;;;;;-145.06;100.00;53904.53;10379793;28;20041;-79
2023/02/04 05:46:28;;;;;;;0.10;0.10;;;;;;;-145.06;100.00;53880.22;10354056;28;20034;-81
2023/02/04 05:51:28;;;;;;;0.10;0.10;;;;;;;-145.06;100.00;53870.09;10373928;28;20030;-79
2023/02/04 05:56:29;;;;;;;0.00;0.00;;;;;;;-145.06;100.00;53864.03;10382726;28;20064;-81
2023/02/04 06:01:29;;;;;;;0.00;0.00;;;;;;;-145.06;100.00;53890.38;10377537;28;20030;-81
2023/02/04 06:06:29;;;;;;;0.00;0.00;;;;;;;-145.06;100.00;53882.25;10360856;28;20126;-81
2023/02/04 06:11:29;;;;;;;0.00;0.00;;;;;;;-145.06;100.00;53880.22;10364009;28;20316;-80
2023/02/04 06:16:30;;;;;;;0.10;0.10;;;;;;;-145.06;100.00;53866.06;10348160;28;20481;-80
2023/02/04 06:21:30;;;;;;;0.05;0.05;;;;;;;-145.06;100.00;53884.28;10367167;28;20379;-79
2023/02/04 06:26:30;;;;;;;0.10;0.10;;;;;;;-145.06;100.00;53874.16;10376056;28;20088;-80
2023/02/04 06:31:31;;;;;;;0.10;0.10;;;;;;;-145.06;100.00;53874.16;10377903;28;20051;-80
2023/02/04 06:36:31;;;;;;;0.10;0.10;;;;;;;-145.06;100.00;53874.16;10369819;28;20033;-80
2023/02/04 06:41:31;;;;;;;0.10;0.10;;;;;;;-145.06;100.00;53949.09;10375224;28;20045;-79
2023/02/04 06:46:32;;;;;;;0.10;0.10;;;;;;;-145.06;100.00;53896.44;10365328;28;20734;-81
2023/02/04 06:51:33;;;;;;;0.10;0.10;;;;;;;-145.06;100.00;53890.38;10366050;28;20261;-80
2023/02/04 06:56:33;;;;;;;0.10;0.10;;;;;;;-145.06;100.00;53851.88;10359837;28;20038;-80
2023/02/04 07:01:33;;;;;;;0.00;0.00;;;;;;;-145.06;100.00;53855.94;10370065;28;20033;-80
2023/02/04 07:06:33;;;;;;;0.00;0.00;;;;;;;-145.06;100.00;53878.22;10346955;28;20489;-81
2023/02/04 07:11:34;;;;;;;0.07;0.07;;;;;;;-145.06;100.00;53868.09;10384369;28;20033;-81
2023/02/04 07:16:34;;;;;;;0.10;0.10;;;;;;;-145.06;100.00;53888.34;10373856;28;20740;-80
2023/02/04 07:21:34;;;;;;;0.00;0.00;;;;;;;-145.06;100.00;53874.16;10360310;28;20513;-79
2023/02/04 07:26:35;;;;;;;0.10;0.10;;;;;;;-145.06;100.00;53862.00;10381838;28;20033;-80
2023/02/04 07:31:35;;;;;;;0.00;0.00;;;;;;;-145.06;100.00;53849.84;10390631;28;20018;-79
2023/02/04 07:36:35;;;;;;;0.00;0.00;;;;;;;-145.06;100.00;53862.00;10365931;28;20065;-80
2023/02/04 07:41:36;;;;;;;0.00;0.00;;;;;;;-145.06;100.00;53843.78;10374236;28;20065;-80
2023/02/04 07:46:36;;;;;;;0.10;0.10;;;;;;;-145.06;100.00;53882.25;10361384;28;20093;-79
2023/02/04 07:51:37;;;;;;;0.10;0.10;;;;;;;-145.06;100.00;53886.31;10375399;28;20440;-80
2023/02/04 07:56:37;;;;;;;0.10;0.10;;;;;;;-145.06;100.00;53880.22;10376674;28;20053;-79
2023/02/04 08:01:37;;;;;;;0.10;0.10;;;;;;;-145.06;100.00;53853.91;10382414;28;20421;-79
2023/02/04 08:06:38;;;;;;;0.10;0.10;;;;;;;-145.06;100.00;53829.59;10378125;28;20334;-80
2023/02/04 08:11:38;;;;;;;0.10;0.10;;;;;;;-145.06;100.00;53868.09;10369990;28;20051;-79
2023/02/04 08:16:38;;;;;;;0.00;0.00;;;;;;;-145.06;100.00;53835.69;10379568;28;20030;-80
2023/02/04 08:21:39;;;;;;;0.00;0.00;;;;;;;-145.06;100.00;53888.34;10370148;28;20037;-79
2023/02/04 08:26:40;;;;;;;0.00;0.00;;;;;;;-145.06;100.00;53862.00;10364406;28;20277;-79
2023/02/04 08:31:40;;;;;;;0.00;0.00;;;;;;;-145.06;100.00;53819.47;10389364;28;20033;-79
2023/02/04 08:36:41;;;;;;;0.00;0.00;;;;;;;-145.06;100.00;53807.31;10376850;28;20392;-79
2023/02/04 08:41:41;;;;;;;0.00;0.00;;;;;;;-145.06;100.00;53797.22;10374049;28;20284;-81
2023/02/04 08:46:41;;;;;;;0.00;0.00;;;;;;;-145.06;100.00;53847.84;10381306;28;20106;-79
2023/02/04 08:51:41;;;;;;;0.00;0.00;;;;;;;-145.06;100.00;53849.84;10356677;28;20026;-80
2023/02/04 08:56:42;;;;;;;0.00;0.00;;;;;;;-145.06;100.00;53831.63;10375564;28;20057;-79
2023/02/04 09:01:46;;;;;;;0.00;0.00;;;;;;;-145.06;100.00;53835.69;10383214;28;20090;-81
2023/02/04 09:06:47;;;;;;;0.00;0.00;;;;;;;-145.06;100.00;53758.72;10370947;28;20326;-81
2023/02/04 09:11:47;;;;;;;0.00;0.00;;;;;;;-145.06;100.00;53795.19;10369657;28;20110;-81
2023/02/04 09:16:48;;;;;;;0.00;0.00;;;;;;;-145.06;100.00;53801.25;10368967;28;20524;-81
2023/02/04 09:21:48;;;;;;;0.00;0.00;;;;;;;-145.06;100.00;53795.19;10366964;28;20034;-81
2023/02/04 09:26:48;;;;;;;0.00;0.00;;;;;;;-145.06;100.00;53787.06;10370926;28;20041;-81
2023/02/04 09:31:49;;;;;;;0.00;0.00;;;;;;;-145.06;100.00;53762.78;10380778;28;20481;-80
2023/02/04 09:36:49;;;;;;;0.00;0.00;;;;;;;-145.06;100.00;53783.03;10376769;28;20072;-80
2023/02/04 09:41:50;;;;;;;0.00;0.00;;;;;;;-145.06;100.00;53787.06;10358113;28;20041;-80
2023/02/04 09:46:54;;;;;;;0.00;0.00;;;;;;;-145.06;100.00;53819.47;10367805;28;20125;-79
2023/02/04 09:51:55;;;;;;;0.00;0.00;;;;;;;-145.06;100.00;53805.31;10372368;28;20425;-80
2023/02/04 09:56:58;;;;;;;0.00;0.00;;;;;;;-145.06;100.00;53805.31;10370531;28;20401;-79
2023/02/04 10:02:10;;;;;;;0.00;0.00;;;;;;;-145.06;100.00;53823.53;10374808;28;20029;-80
2023/02/04 10:07:12;;;;;;;0.00;0.00;;;;;;;-145.06;100.00;53805.31;10363228;28;20029;-80
2023/02/04 10:12:13;;;;;;;0.00;0.00;;;;;;;-145.06;100.00;53809.34;10357026;28;20030;-79
2023/02/04 10:17:18;;;;;;;0.00;0.00;;;;;;;-145.06;100.00;53811.38;10354819;28;20026;-80
2023/02/04 10:22:21;;;;;;;0.00;0.00;;;;;;;-145.06;100.00;53819.47;10364219;28;20037;-80
2023/02/04 10:27:22;;;;;;;0.00;0.00;;;;;;;-145.06;100.00;53819.47;10362815;28;20037;-79
2023/02/04 10:32:28;;;;;;;0.00;0.00;;;;;;;-145.06;100.00;53807.31;10380979;28;20101;-81
2023/02/04 10:37:29;;;;;;;0.00;0.00;;;;;;;-145.06;100.00;53813.41;10365985;28;20091;-81
2023/02/04 10:42:30;;;;;;;0.00;0.00;;;;;;;-145.06;100.00;53823.53;10353266;28;20033;-80
2023/02/04 10:47:30;;;;;;;0.00;0.00;;;;;;;-145.06;100.00;53859.97;10389683;28;20036;-80
2023/02/04 10:52:40;;;;;;;0.00;0.00;;;;;;;-145.06;100.00;53787.06;10396241;28;20026;-80
2023/02/04 10:57:43;;;;;;;0.00;0.00;;;;;;;-145.06;100.00;53770.88;10382258;28;20320;-80
2023/02/04 11:02:44;;;;;;;0.00;0.00;;;;;;;-145.06;100.00;53799.22;10386897;28;20033;-79
2023/02/04 11:07:46;;;;;;;0.00;0.00;;;;;;;-145.06;100.00;53841.75;10379660;28;20038;-80
2023/02/04 11:12:53;;;;;;;0.00;0.00;;;;;;;-145.06;100.00;53853.91;10396766;23;20057;-81
2023/02/04 11:18:26;;;;;;;0.00;0.00;;;;;;;-145.06;100.00;53831.63;10367765;28;20045;-78
2023/02/04 11:23:31;;;;;;;0.00;0.00;;;;;;;-145.06;100.00;53787.06;10364218;28;20526;-81
2023/02/04 11:28:44;;;;;;;0.00;0.00;;;;;;;-145.06;100.00;53847.84;10383328;28;20030;-80
2023/02/04 11:33:45;;;;;;;0.00;0.00;;;;;;;-145.06;100.00;53829.59;10382213;28;20033;-79
2023/02/04 11:38:48;;;;;;;0.00;0.00;;;;;;;-145.06;100.00;53811.38;10382800;28;20029;-80
2023/02/04 11:43:52;;;;;;;0.00;0.00;;;;;;;-145.06;100.00;53849.84;10381576;28;20049;-80
2023/02/04 11:48:55;;;;;;;0.00;0.00;;;;;;;-145.06;100.00;53835.69;10382231;28;20393;-80
2023/02/04 11:53:55;;;;;;;0.00;0.00;;;;;;;-145.06;100.00;53868.09;10382317;28;20026;-80
2023/02/04 11:58:57;;;;;;;0.00;0.00;;;;;;;-145.06;100.00;53811.38;10382282;28;20498;-80
2023/02/04 12:04:00;;;;;;;0.00;0.00;;;;;;;-145.06;100.00;53837.72;10364616;28;20164;-79
2023/02/04 12:09:28;;;;;;;0.00;0.00;;;;;;;-145.06;100.00;53823.53;10383575;28;20044;-79
2023/02/04 12:14:34;;;;;;;0.00;0.00;;;;;;;-145.06;100.00;53791.13;10364896;28;20489;-80
2023/02/04 12:19:34;;;;;;;0.00;0.00;;;;;;;-145.06;100.00;53811.38;10353935;28;20448;-80
2023/02/04 12:24:35;;;;;;;0.00;0.00;;;;;;;-145.06;100.00;53811.38;10359868;28;20113;-80
2023/02/04 12:29:35;;;;;;;0.08;0.08;;;;;;;-145.06;100.00;53825.56;10363192;28;20146;-80
2023/02/04 12:34:35;;;;;;;0.00;0.00;;;;;;;-145.06;100.00;53819.47;10380781;28;20025;-80
2023/02/04 12:39:35;;;;;;;0.00;0.00;;;;;;;-145.06;100.00;53823.53;10362934;28;20033;-80
2023/02/04 12:44:36;;;;;;;0.10;0.10;;;;;;;-145.06;100.00;53795.19;10380312;28;20078;-80
2023/02/04 12:49:36;;;;;;;0.00;0.00;;;;;;;-145.06;100.00;53843.78;10381145;28;20389;-80
2023/02/04 12:54:37;;;;;;;0.00;0.00;;;;;;;-145.06;100.00;53847.84;10379451;28;20033;-80
2023/02/04 12:59:37;;;;;;;0.00;0.00;;;;;;;-145.06;100.00;53813.41;10361964;28;20030;-80
2023/02/04 13:04:39;;;;;;;0.00;0.00;;;;;;;-145.06;100.00;53795.19;10378275;28;20292;-80
2023/02/04 13:09:44;;;;;;;0.00;0.00;;;;;;;-145.06;100.00;53859.97;10378969;28;20041;-79
2023/02/04 13:14:44;;;;;;;;;;;;;;;-145.06;100.00;53862.00;10362023;28;20029;-80
2023/02/04 13:19:44;;;;;;;0.00;0.00;;;;;;;-145.06;100.00;53839.72;10361406;28;19913;-81
2023/02/04 13:24:44;;;;;;;0.00;0.00;;;;;;;-145.06;100.00;53864.03;10378901;28;20112;-80
2023/02/04 13:29:45;;;;;;;0.00;0.00;;;;;;;-145.06;100.00;53835.69;10361147;28;20640;-80
2023/02/04 13:34:45;;;;;;;0.00;0.00;;;;;;;-145.06;100.00;53815.44;10378436;28;20052;-81
2023/02/04 13:39:45;;;;;;;0.00;0.00;;;;;;;-145.06;100.00;53811.38;10361740;28;20033;-80
2023/02/04 13:44:46;;;;;;;0.00;0.00;;;;;;;-145.06;100.00;53845.81;10378474;28;20171;-81
2023/02/04 13:49:47;;;;;;;0.00;0.00;;;;;;;-145.06;100.00;53853.91;10377942;28;20042;-81
2023/02/04 13:54:47;;;;;;;0.00;0.00;;;;;;;-145.06;100.00;53815.44;10378896;28;20081;-79
2023/02/04 13:59:47;;;;;;;0.00;0.00;;;;;;;-145.06;100.00;53888.34;10378447;28;20109;-79
2023/02/04 14:04:48;;;;;;;0.00;0.00;;;;;;;-145.06;100.00;53833.66;10359721;28;20374;-79
2023/02/04 14:09:48;;;;;;;0.00;0.00;;;;;;;-145.06;100.00;53839.72;10359263;28;20504;-78
2023/02/04 14:14:49;;;;;;;0.00;0.00;;;;;;;-145.06;100.00;53807.31;10359614;28;20026;-79
2023/02/04 14:19:49;;;;;;;0.00;0.00;;;;;;;-145.06;100.00;53884.28;10384227;28;20033;-79
2023/02/04 14:24:49;;;;;;;0.00;0.00;;;;;;;-145.06;100.00;53797.22;10385239;28;20038;-80
2023/02/04 14:29:49;;;;;;;0.00;0.00;;;;;;;-145.06;100.00;53825.56;10367189;28;20034;-80
2023/02/04 14:34:50;;;;;;;0.00;0.00;;;;;;;-145.06;100.00;53801.25;10385382;28;20124;-79
2023/02/04 14:39:50;;;;;;;0.00;0.00;;;;;;;-145.06;100.00;53845.81;10384858;28;20093;-79
2023/02/04 14:44:51;;;;;;;0.00;0.00;;;;;;;-145.06;100.00;53815.44;10385334;28;20113;-77
2023/02/04 14:49:51;;;;;;;0.00;0.00;;;;;;;-145.06;100.00;53813.41;10384756;28;20064;-79
2023/02/04 14:54:51;;;;;;;0.00;0.00;;;;;;;-145.06;100.00;53825.56;10367602;28;20022;-80
2023/02/04 14:59:51;;;;;;;0.00;0.00;;;;;;;-145.06;100.00;53843.78;10367539;28;20037;-80
2023/02/04 15:04:52;;;;;;;0.00;0.00;;;;;;;-145.06;100.00;53859.97;10384035;28;20034;-80
2023/02/04 15:09:52;;;;;;;0.00;0.00;;;;;;;-145.06;100.00;53823.53;10366551;28;20038;-79
2023/02/04 15:14:52;;;;;;;0.00;0.00;;;;;;;-145.06;100.00;53837.72;10366256;28;20068;-79
2023/02/04 15:19:53;;;;;;;0.00;0.00;;;;;;;-145.06;100.00;53841.75;10366057;28;20038;-78
2023/02/04 15:24:53;;;;;;;0.00;0.00;;;;;;;-145.06;100.00;53825.56;10364878;28;20026;-79
2023/02/04 15:29:54;;;;;;;0.00;0.00;;;;;;;-145.06;100.00;53862.00;10365182;28;20357;-80
2023/02/04 15:34:54;;;;;;;0.00;0.00;;;;;;;-145.06;100.00;53821.50;10385071;28;20277;-80
2023/02/04 15:39:54;;;;;;;0.00;0.00;;;;;;;-145.06;100.00;53853.91;10384564;28;20034;-80
2023/02/04 15:44:55;;;;;;;0.00;0.00;;;;;;;-145.06;100.00;53847.84;10365035;28;20045;-80
2023/02/04 15:49:55;;;;;;;0.00;0.00;;;;;;;-145.06;100.00;53862.00;10364459;28;20744;-79
2023/02/04 15:54:55;;;;;;;0.00;0.00;;;;;;;-145.06;100.00;53839.72;10381884;28;20022;-79
2023/02/04 15:59:56;;;;;;;0.00;0.00;;;;;;;-145.06;100.00;53878.22;10381185;28;20022;-79
2023/02/04 16:04:57;;;;;;;0.10;0.10;;;;;;;-145.06;100.00;53851.88;10363957;28;20037;-80
2023/02/04 16:09:57;;;;;;;0.00;0.00;;;;;;;-145.06;100.00;53819.47;10380999;28;20041;-80
2023/02/04 16:14:58;;;;;;;0.00;0.00;;;;;;;-145.06;100.00;53819.47;10364025;28;20021;-80
2023/02/04 16:19:58;;;;;;;0.00;0.00;;;;;;;-145.06;100.00;53868.09;10362759;28;20067;-79
2023/02/04 16:24:59;;;;;;;0.00;0.00;;;;;;;-145.06;100.00;53847.84;10380766;28;20044;-80
2023/02/04 16:30:00;;;;;;;0.00;0.00;;;;;;;-145.06;100.00;53835.69;10362959;28;20117;-80
2023/02/04 16:35:03;;;;;;;0.00;0.00;;;;;;;-145.06;100.00;53876.19;10363225;28;20053;-80
2023/02/04 16:40:04;;;;;;;0.00;0.00;;;;;;;-145.06;100.00;53876.19;10380091;28;20038;-80
2023/02/04 16:45:05;;;;;;;0.00;0.00;;;;;;;-145.06;100.00;53853.91;10364042;28;20120;-80
2023/02/04 16:50:06;;;;;;;0.00;0.00;;;;;;;-145.06;100.00;53851.88;10362647;28;20112;-80
2023/02/04 16:55:07;;;;;;;0.00;0.00;;;;;;;-145.06;100.00;53833.66;10361364;28;20034;-79
2023/02/04 17:00:09;;;;;;;0.00;0.00;;;;;;;-145.06;100.00;53831.63;10361767;28;20029;-80
2023/02/04 17:05:12;;;;;;;0.00;0.00;;;;;;;-145.06;100.00;53831.63;10379134;28;20385;-79
2023/02/04 17:10:13;;;;;;;0.00;0.00;;;;;;;-145.06;100.00;53845.81;10378701;28;20520;-78
2023/02/04 17:15:14;;;;;;;0.00;0.00;;;;;;;-145.06;100.00;53827.59;10361405;28;20081;-80
2023/02/04 17:20:14;;;;;;;0.00;0.00;;;;;;;-145.06;100.00;53823.53;10380766;28;20268;-80
2023/02/04 17:25:15;;;;;;;0.00;0.00;;;;;;;-145.06;100.00;53862.00;10362600;28;20033;-80
2023/02/04 17:30:16;;;;;;;0.00;0.00;;;;;;;-145.06;100.00;53859.97;10405421;23;20049;-80
2023/02/04 17:35:16;;;;;;;0.00;0.00;;;;;;;-145.06;100.00;53829.59;10394194;28;20029;-79
2023/02/04 17:40:17;;;;;;;0.00;0.00;;;;;;;-145.06;100.00;53819.47;10414585;28;20037;-79
2023/02/04 17:45:17;;;;;;;0.00;0.00;;;;;;;-145.06;100.00;53835.69;10412582;28;20064;-80
2023/02/04 17:50:18;;;;;;;0.00;0.00;;;;;;;-145.06;100.00;53847.84;10415572;28;20041;-80
2023/02/04 17:55:27;;;;;;;0.00;0.00;;;;;;;-145.06;100.00;53886.31;10414467;28;20025;-79
2023/02/04 18:00:29;;;;;;;0.00;0.00;;;;;;;-145.06;100.00;53876.19;10415380;28;20064;-79
2023/02/04 18:05:33;;;;;;;0.03;0.03;;;;;;;-145.06;100.00;53870.09;10413532;28;20033;-79
2023/02/04 18:10:38;;;;;;;0.00;0.00;;;;;;;-145.06;100.00;53855.94;10413219;28;20038;-78
2023/02/04 18:15:38;;;;;;;0.00;0.00;;;;;;;-145.06;100.00;53851.88;10409666;28;20112;-78
2023/02/04 18:20:39;;;;;;;0.00;0.00;;;;;;;-145.06;100.00;53831.63;10396748;28;20469;-79
2023/02/04 18:25:39;;;;;;;0.00;0.00;;;;;;;-145.06;100.00;53841.75;10409914;28;20683;-78
2023/02/04 18:30:40;;;;;;;0.10;0.10;;;;;;;-145.06;100.00;53831.63;10412408;28;20053;-78
2023/02/04 18:35:43;;;;;;;0.00;0.00;;;;;;;-145.06;100.00;53829.59;10407380;28;20029;-78
2023/02/04 18:40:43;;;;;;;0.00;0.00;;;;;;;-145.06;100.00;53843.78;10411284;28;20080;-78
2023/02/04 18:45:43;;;;;;;0.00;0.00;;;;;;;-145.06;100.00;53831.63;10407648;28;20124;-77
2023/02/04 18:50:45;;;;;;;0.05;0.05;;;;;;;-145.06;100.00;53845.81;10413026;28;20040;-77
2023/02/04 18:55:49;;;;;;;0.00;0.00;;;;;;;-145.06;100.00;53872.13;10413878;28;20029;-77
2023/02/04 19:01:02;;;;;;;0.00;0.00;;;;;;;-145.06;100.00;53839.72;10409261;28;20117;-77
2023/02/04 19:06:15;;;;;;;0.10;0.10;;;;;;;-145.06;100.00;53847.84;10414433;28;20030;-79
2023/02/04 19:11:35;;;;;;;0.00;0.00;;;;;;;-145.06;100.00;53864.03;10418799;28;20029;-77
2023/02/04 19:16:35;;;;;;;0.00;0.00;;;;;;;-145.06;100.00;53868.09;10412143;28;20033;-78
2023/02/04 19:21:37;;;;;;;0.00;0.00;;;;;;;-145.06;100.00;53809.34;10399840;28;20377;-79
2023/02/04 19:26:42;;;;;;;0.08;0.08;;;;;;;-145.06;100.00;53831.63;10420970;28;20031;-78
2023/02/04 19:31:42;;;;;;;0.00;0.00;;;;;;;-145.06;100.00;53823.53;10420405;28;20112;-78
2023/02/04 19:36:42;;;;;;;0.00;0.00;;;;;;;-145.06;100.00;53894.41;10418940;28;20748;-78
2023/02/04 19:41:48;;;;;;;0.00;0.00;;;;;;;-145.06;100.00;53851.88;10421336;28;20307;-78
2023/02/04 19:46:48;;;;;;;0.00;0.00;;;;;;;-145.06;100.00;53864.03;10407470;28;20032;-78
2023/02/04 19:51:53;;;;;;;0.08;0.08;;;;;;;-145.06;100.00;53892.38;10419672;28;20104;-78
2023/02/04 19:56:54;;;;;;;0.00;0.00;;;;;;;-145.06;100.00;53855.94;10417584;28;20041;-78
2023/02/04 20:02:06;;;;;;;0.10;0.10;;;;;;;-145.06;100.00;53839.72;10415309;28;20404;-79
2023/02/04 20:07:27;;;;;;;0.10;0.10;;;;;;;-145.06;100.00;53874.16;10416629;28;20310;-80
2023/02/04 20:12:30;;;;;;;0.00;0.00;;;;;;;-145.06;100.00;53857.97;10417290;28;20032;-79
2023/02/04 20:17:41;;;;;;;0.00;0.00;;;;;;;-145.06;100.00;53866.06;10409851;28;20113;-79
2023/02/04 20:22:55;;;;;;;0.00;0.00;;;;;;;-145.06;100.00;53900.50;10419389;28;20400;-79
2023/02/04 20:28:01;;;;;;;0.10;0.10;;;;;;;-145.06;100.00;53831.63;10419507;28;20041;-78
2023/02/04 20:33:30;;;;;;;0.00;0.00;;;;;;;-145.06;100.00;53847.84;10419189;28;20552;-79
2023/02/04 20:38:30;;;;;;;0.10;0.10;;;;;;;-145.06;100.00;53851.88;10417338;28;20033;-79
2023/02/04 20:43:33;;;;;;;0.10;0.10;;;;;;;-145.06;100.00;53851.88;10398917;28;20052;-79
2023/02/04 20:48:35;;;;;;;0.00;0.00;;;;;;;-145.06;100.00;53847.84;10400101;28;20496;-78
2023/02/04 20:53:46;;;;;;;0.10;0.10;;;;;;;-145.06;100.00;53851.88;10418560;28;20025;-77
2023/02/04 20:58:46;;;;;;;0.10;0.10;;;;;;;-145.06;100.00;53839.72;10418309;28;20025;-78
2023/02/04 21:03:48;;;;;;;0.20;0.20;;;;;;;-145.06;100.00;53813.41;10417037;28;20038;-78
2023/02/04 21:08:51;;;;;;;0.10;0.10;;;;;;;-145.06;100.00;53862.00;10417800;28;20564;-78
2023/02/04 21:13:53;;;;;;;0.17;0.17;;;;;;;-145.06;100.00;53827.59;10410792;28;20388;-77
2023/02/04 21:18:53;;;;;;;0.00;0.00;;;;;;;-145.06;100.00;53902.50;10376271;28;20041;-78
2023/02/04 21:23:53;;;;;;;0.10;0.10;;;;;;;-145.06;100.00;53843.78;10357683;28;20044;-77
2023/02/04 21:28:54;;;;;;;0.10;0.10;;;;;;;-145.06;100.00;53825.56;10376540;28;20029;-77
2023/02/04 21:33:55;;;;;;;0.10;0.10;;;;;;;-145.06;100.00;53851.88;10415277;28;20083;-77
2023/02/04 21:38:56;;;;;;;0.10;0.10;;;;;;;-145.06;100.00;53896.44;10415601;28;20120;-77
2023/02/04 21:43:57;;;;;;;0.10;0.10;;;;;;;-145.06;100.00;53841.75;10406893;28;20539;-77
2023/02/04 21:48:58;;;;;;;0.10;0.10;;;;;;;-145.06;100.00;53847.84;10374563;28;20100;-77
2023/02/04 21:53:59;;;;;;;0.10;0.10;;;;;;;-145.06;100.00;53847.84;10356476;28;20265;-77
2023/02/04 21:58:59;;;;;;;0.10;0.10;;;;;;;-145.06;100.00;53847.84;10374241;28;20037;-77
2023/02/04 22:04:00;;;;;;;0.00;0.00;;;;;;;-145.06;100.00;53857.97;10372811;28;20388;-78
2023/02/04 22:09:00;;;;;;;0.10;0.10;;;;;;;-145.06;100.00;53878.22;10403388;28;20099;-77
2023/02/04 22:14:00;;;;;;;0.10;0.10;;;;;;;-145.06;100.00;53853.91;10412987;28;20029;-78
2023/02/04 22:19:01;;;;;;;0.10;0.10;;;;;;;-145.06;100.00;53864.03;10395743;28;20270;-78
2023/02/04 22:24:01;;;;;;;0.10;0.10;;;;;;;-145.06;100.00;53837.72;10413410;28;20362;-77
2023/02/04 22:29:02;;;;;;;0.13;0.13;;;;;;;-145.06;100.00;53855.94;10395881;28;20045;-77
2023/02/04 22:34:04;;;;;;;0.10;0.10;;;;;;;-145.06;100.00;53862.00;10413012;28;20097;-78